Ansley, Nebraska
Current Conditions -  °F | °C
As of 5:53 PM on Tuesday 25 Nov 2014 (Local Time) from KBBW Reporting Station
Overcast Overcast  
Wind Chill: 36°   Ceiling: 4500
Heat Index: 41°   Visibility: 10mi
Dew Point: 27°   Wind: 8mph
Humidity: 57%   Direction: 270°W
Pressure: 29.8"   Gusts: NA
Location:  41.29°N, 99.38°W
Report Text: KBBW 252353Z AUTO 27007KT 10SM BKN045 OVC090 05/M03 A2980 RMK AO2 SLP112 T00501028 10072 20044 56011
Loading
Personal Weather Stations






























Interactive Weather Map New forecast layout! Learn more

10-Day Weather Forecast

Advertisements
Track Severe Weather on mobile